Wetterdaten: Woche 10.01.22 - 16.01.22 (KW2)
Datum Zeit Temp. 2m rel. Feuchte Luftdruck Regen Wind Richtung Sonne ET UV-Index Solar Taupunkt Ben
10.01.2022 00:00 2,8 C 88 % 1010,3 hPa 0,0 mm 1,8 km/h (1 Bft) O 0,00 h 0,0 mm 0,0 UV-I 0 W/m 1,0 C 3,7 km/h (1 Bft)
10.01.2022 01:00 2,0 C 88 % 1011,1 hPa 0,0 mm 0,0 km/h (0 Bft) N 0,00 h 0,0 mm 0,0 UV-I 0 W/m 0,3 C 0,0 km/h (0 Bft)
10.01.2022 02:00 1,1 C 89 % 1011,9 hPa 0,0 mm 0,0 km/h (0 Bft) N 0,00 h 0,0 mm 0,0 UV-I 0 W/m -0,6 C 0,0 km/h (0 Bft)
10.01.2022 03:00 0,7 C 90 % 1012,9 hPa 0,0 mm 0,0 km/h (0 Bft) N 0,00 h 0,0 mm 0,0 UV-I 0 W/m -0,7 C 0,0 km/h (0 Bft)
10.01.2022 04:00 0,7 C 90 % 1013,8 hPa 0,0 mm 0,0 km/h (0 Bft) N 0,00 h 0,0 mm 0,0 UV-I 0 W/m -0,7 C 0,0 km/h (0 Bft)
10.01.2022 05:00 0,2 C 90 % 1014,9 hPa 0,0 mm 0,0 km/h (0 Bft) N 0,00 h 0,0 mm 0,0 UV-I 0 W/m -1,2 C 0,0 km/h (0 Bft)
10.01.2022 06:00 0,6 C 91 % 1016,1 hPa 0,0 mm 0,0 km/h (0 Bft) N 0,00 h 0,0 mm 0,0 UV-I 0 W/m -0,7 C 0,0 km/h (0 Bft)
10.01.2022 07:00 1,1 C 91 % 1017,4 hPa 0,0 mm 0,0 km/h (0 Bft) N 0,00 h 0,0 mm 0,0 UV-I 0 W/m -0,2 C 0,0 km/h (0 Bft)
10.01.2022 08:00 1,3 C 91 % 1018,6 hPa 0,0 mm 0,2 km/h (0 Bft) W-NW 0,00 h 0,0 mm 0,0 UV-I 10 W/m -0,0 C 1,3 km/h (1 Bft)
10.01.2022 09:00 1,1 C 91 % 1019,9 hPa 0,0 mm 0,2 km/h (0 Bft) O 0,67 h 0,0 mm 0,4 UV-I 65 W/m -0,2 C 0,7 km/h (0 Bft)
10.01.2022 10:00 1,6 C 92 % 1020,9 hPa 0,0 mm 0,2 km/h (0 Bft) W-SW 1,00 h 0,0 mm 0,6 UV-I 190 W/m 0,4 C 1,3 km/h (1 Bft)
10.01.2022 11:00 3,1 C 90 % 1021,7 hPa 0,0 mm 0,8 km/h (0 Bft) O 1,00 h 0,1 mm 1,0 UV-I 313 W/m 1,6 C 1,8 km/h (1 Bft)
10.01.2022 12:00 5,0 C 85 % 1022,3 hPa 0,0 mm 3,0 km/h (1 Bft) O 1,00 h 0,1 mm 1,4 UV-I 349 W/m 2,8 C 7,2 km/h (2 Bft)
10.01.2022 13:00 6,0 C 82 % 1023,0 hPa 0,0 mm 3,4 km/h (1 Bft) O 1,00 h 0,1 mm 1,4 UV-I 336 W/m 3,1 C 8,5 km/h (2 Bft)
10.01.2022 14:00 7,1 C 78 % 1023,9 hPa 0,0 mm 2,7 km/h (1 Bft) O 1,00 h 0,1 mm 1,4 UV-I 252 W/m 3,6 C 6,7 km/h (2 Bft)
10.01.2022 15:00 6,5 C 78 % 1024,6 hPa 0,0 mm 1,6 km/h (1 Bft) O 1,00 h 0,1 mm 1,0 UV-I 143 W/m 2,9 C 5,9 km/h (2 Bft)
10.01.2022 16:00 5,2 C 81 % 1025,4 hPa 0,0 mm 0,6 km/h (0 Bft) O 0,42 h 0,1 mm 0,0 UV-I 23 W/m 2,2 C 1,8 km/h (1 Bft)
10.01.2022 17:00 3,3 C 84 % 1026,3 hPa 0,0 mm 0,0 km/h (0 Bft) N 0,00 h 0,0 mm 0,0 UV-I 0 W/m 0,8 C 0,0 km/h (0 Bft)
10.01.2022 18:00 2,0 C 87 % 1027,2 hPa 0,0 mm 0,0 km/h (0 Bft) N 0,00 h 0,0 mm 0,0 UV-I 0 W/m 0,0 C 0,0 km/h (0 Bft)
10.01.2022 19:00 1,3 C 88 % 1028,1 hPa 0,0 mm 0,0 km/h (0 Bft) N 0,00 h 0,0 mm 0,0 UV-I 0 W/m -0,5 C 0,0 km/h (0 Bft)
10.01.2022 20:00 1,0 C 89 % 1028,9 hPa 0,0 mm 0,6 km/h (0 Bft) SW 0,00 h 0,0 mm 0,0 UV-I 0 W/m -0,6 C 3,0 km/h (1 Bft)
10.01.2022 21:00 1,3 C 90 % 1029,3 hPa 0,0 mm 3,1 km/h (1 Bft) SW 0,00 h 0,0 mm 0,0 UV-I 0 W/m -0,1 C 9,3 km/h (2 Bft)
10.01.2022 22:00 0,9 C 90 % 1029,7 hPa 0,0 mm 4,2 km/h (1 Bft) S 0,00 h 0,0 mm 0,0 UV-I 0 W/m -0,5 C 12,2 km/h (2 Bft)
10.01.2022 23:00 0,9 C 91 % 1030,2 hPa 0,0 mm 4,8 km/h (1 Bft) S 0,00 h 0,0 mm 0,0 UV-I 0 W/m -0,3 C 15,4 km/h (3 Bft)
11.01.2022 00:00 0,8 C 92 % 1030,6 hPa 0,0 mm 0,6 km/h (0 Bft) S 0,00 h 0,0 mm 0,0 UV-I 0 W/m -0,4 C 7,6 km/h (2 Bft)
11.01.2022 01:00 0,6 C 93 % 1030,9 hPa 0,0 mm 2,1 km/h (1 Bft) S 0,00 h 0,0 mm 0,0 UV-I 0 W/m -0,4 C 12,0 km/h (2 Bft)
11.01.2022 02:00 0,5 C 93 % 1031,2 hPa 0,0 mm 3,8 km/h (1 Bft) S 0,00 h 0,0 mm 0,0 UV-I 0 W/m -0,5 C 13,7 km/h (3 Bft)
11.01.2022 03:00 0,6 C 93 % 1031,7 hPa 0,0 mm 4,2 km/h (1 Bft) S 0,00 h 0,0 mm 0,0 UV-I 0 W/m -0,4 C 12,6 km/h (3 Bft)
11.01.2022 04:00 0,4 C 93 % 1032,0 hPa 0,0 mm 3,9 km/h (1 Bft) S 0,00 h 0,0 mm 0,0 UV-I 0 W/m -0,6 C 13,7 km/h (3 Bft)
11.01.2022 05:00 0,2 C 93 % 1032,2 hPa 0,0 mm 3,6 km/h (1 Bft) S 0,00 h 0,0 mm 0,0 UV-I 0 W/m -0,8 C 12,4 km/h (3 Bft)
11.01.2022 06:00 0,2 C 93 % 1032,5 hPa 0,0 mm 3,6 km/h (1 Bft) S 0,00 h 0,0 mm 0,0 UV-I 0 W/m -0,8 C 11,1 km/h (2 Bft)
11.01.2022 07:00 0,0 C 93 % 1032,8 hPa 0,0 mm 4,8 km/h (1 Bft) S 0,00 h 0,0 mm 0,0 UV-I 0 W/m -1,0 C 14,4 km/h (3 Bft)
11.01.2022 08:00 -0,2 C 93 % 1033,3 hPa 0,0 mm 5,6 km/h (1 Bft) S 0,00 h 0,0 mm 0,0 UV-I 6 W/m -1,2 C 14,1 km/h (3 Bft)
11.01.2022 09:00 -0,2 C 93 % 1033,6 hPa 0,0 mm 4,5 km/h (1 Bft) S 0,00 h 0,0 mm 0,0 UV-I 25 W/m -1,2 C 13,7 km/h (3 Bft)
11.01.2022 10:00 -0,1 C 93 % 1034,0 hPa 0,0 mm 5,0 km/h (1 Bft) S 0,00 h 0,0 mm 0,3 UV-I 60 W/m -1,1 C 13,9 km/h (3 Bft)
11.01.2022 11:00 0,2 C 93 % 1034,1 hPa 0,0 mm 3,8 km/h (1 Bft) S 0,00 h 0,0 mm 0,7 UV-I 93 W/m -0,8 C 12,9 km/h (3 Bft)
11.01.2022 12:00 0,8 C 93 % 1034,3 hPa 0,0 mm 3,4 km/h (1 Bft) O 0,17 h 0,0 mm 0,8 UV-I 138 W/m -0,2 C 12,0 km/h (2 Bft)
11.01.2022 13:00 1,7 C 93 % 1034,2 hPa 0,0 mm 4,0 km/h (1 Bft) O 0,75 h 0,1 mm 1,0 UV-I 224 W/m 0,7 C 12,0 km/h (2 Bft)
11.01.2022 14:00 4,2 C 89 % 1033,8 hPa 0,0 mm 4,7 km/h (1 Bft) O 1,00 h 0,1 mm 1,3 UV-I 268 W/m 2,5 C 11,8 km/h (2 Bft)
11.01.2022 15:00 5,0 C 84 % 1033,7 hPa 0,0 mm 3,9 km/h (1 Bft) O 1,00 h 0,1 mm 1,0 UV-I 163 W/m 2,6 C 9,3 km/h (2 Bft)
11.01.2022 16:00 4,6 C 84 % 1034,0 hPa 0,0 mm 2,6 km/h (1 Bft) O 0,33 h 0,1 mm 0,4 UV-I 22 W/m 2,1 C 6,5 km/h (2 Bft)
11.01.2022 17:00 3,6 C 85 % 1034,1 hPa 0,0 mm 2,4 km/h (1 Bft) O 0,00 h 0,0 mm 0,0 UV-I 4 W/m 1,4 C 5,7 km/h (1 Bft)
11.01.2022 18:00 2,8 C 86 % 1034,5 hPa 0,0 mm 1,6 km/h (1 Bft) O 0,00 h 0,0 mm 0,0 UV-I 0 W/m 0,8 C 4,6 km/h (1 Bft)
11.01.2022 19:00 2,3 C 87 % 1035,0 hPa 0,0 mm 1,1 km/h (0 Bft) O 0,00 h 0,0 mm 0,0 UV-I 0 W/m 0,4 C 3,9 km/h (1 Bft)
11.01.2022 20:00 1,7 C 88 % 1035,4 hPa 0,0 mm 0,7 km/h (0 Bft) S 0,00 h 0,0 mm 0,0 UV-I 0 W/m -0,1 C 3,3 km/h (1 Bft)
11.01.2022 21:00 1,1 C 89 % 1035,6 hPa 0,0 mm 3,0 km/h (1 Bft) S-SW 0,00 h 0,0 mm 0,0 UV-I 0 W/m -0,6 C 8,7 km/h (2 Bft)
11.01.2022 22:00 0,9 C 89 % 1035,9 hPa 0,0 mm 3,3 km/h (1 Bft) S-SW 0,00 h 0,0 mm 0,0 UV-I 0 W/m -0,7 C 9,6 km/h (2 Bft)
11.01.2022 23:00 0,6 C 90 % 1036,2 hPa 0,0 mm 2,6 km/h (1 Bft) S-SW 0,00 h 0,0 mm 0,0 UV-I 0 W/m -0,8 C 8,0 km/h (2 Bft)
12.01.2022 00:00 0,5 C 90 % 1036,5 hPa 0,0 mm 3,4 km/h (1 Bft) S-SW 0,00 h 0,0 mm 0,0 UV-I 0 W/m -0,9 C 10,2 km/h (2 Bft)
12.01.2022 01:00 0,5 C 90 % 1036,5 hPa 0,0 mm 3,9 km/h (1 Bft) S-SW 0,00 h 0,0 mm 0,0 UV-I 0 W/m -1,0 C 10,6 km/h (2 Bft)
12.01.2022 02:00 0,2 C 90 % 1036,8 hPa 0,0 mm 2,6 km/h (1 Bft) SW 0,00 h 0,0 mm 0,0 UV-I 0 W/m -1,3 C 9,4 km/h (2 Bft)
12.01.2022 03:00 0,2 C 91 % 1037,3 hPa 0,0 mm 2,5 km/h (1 Bft) SW 0,00 h 0,0 mm 0,0 UV-I 0 W/m -1,2 C 7,6 km/h (2 Bft)
12.01.2022 04:00 0,3 C 91 % 1037,0 hPa 0,0 mm 3,6 km/h (1 Bft) S-SW 0,00 h 0,0 mm 0,0 UV-I 0 W/m -1,1 C 9,9 km/h (2 Bft)
12.01.2022 05:00 0,3 C 90 % 1037,3 hPa 0,0 mm 2,9 km/h (1 Bft) S-SW 0,00 h 0,0 mm 0,0 UV-I 0 W/m -1,0 C 9,6 km/h (2 Bft)
12.01.2022 06:00 0,6 C 90 % 1037,5 hPa 0,0 mm 2,0 km/h (1 Bft) S-SW 0,00 h 0,0 mm 0,0 UV-I 0 W/m -0,7 C 7,4 km/h (2 Bft)
12.01.2022 07:00 0,8 C 90 % 1037,6 hPa 0,0 mm 2,6 km/h (1 Bft) S-SW 0,00 h 0,0 mm 0,0 UV-I 0 W/m -0,6 C 6,8 km/h (2 Bft)
12.01.2022 08:00 0,7 C 90 % 1038,2 hPa 0,0 mm 1,4 km/h (1 Bft) S-SW 0,00 h 0,0 mm 0,0 UV-I 8 W/m -0,7 C 5,4 km/h (1 Bft)
12.01.2022 09:00 1,2 C 90 % 1039,0 hPa 0,0 mm 2,3 km/h (1 Bft) S-SW 0,00 h 0,0 mm 0,0 UV-I 26 W/m -0,3 C 6,8 km/h (2 Bft)
12.01.2022 10:00 1,6 C 89 % 1039,7 hPa 0,0 mm 1,4 km/h (1 Bft) O 0,00 h 0,0 mm 0,0 UV-I 31 W/m 0,0 C 5,2 km/h (1 Bft)
12.01.2022 11:00 2,3 C 90 % 1039,7 hPa 0,0 mm 0,7 km/h (0 Bft) O 0,00 h 0,0 mm 0,0 UV-I 52 W/m 0,8 C 3,5 km/h (1 Bft)
12.01.2022 12:00 2,9 C 90 % 1039,8 hPa 0,0 mm 2,4 km/h (1 Bft) O 0,00 h 0,0 mm 0,4 UV-I 55 W/m 1,5 C 7,0 km/h (2 Bft)
12.01.2022 13:00 3,1 C 91 % 1039,9 hPa 0,0 mm 1,1 km/h (1 Bft) O 0,00 h 0,0 mm 0,6 UV-I 54 W/m 1,8 C 5,4 km/h (1 Bft)
12.01.2022 14:00 3,4 C 91 % 1039,9 hPa 0,0 mm 0,7 km/h (0 Bft) O 0,00 h 0,0 mm 0,0 UV-I 40 W/m 2,0 C 2,8 km/h (1 Bft)
12.01.2022 15:00 3,4 C 91 % 1039,9 hPa 0,0 mm 0,7 km/h (0 Bft) O 0,00 h 0,0 mm 0,0 UV-I 19 W/m 2,1 C 2,0 km/h (1 Bft)
12.01.2022 16:00 3,4 C 91 % 1040,0 hPa 0,0 mm 0,3 km/h (0 Bft) NW 0,00 h 0,0 mm 0,0 UV-I 7 W/m 2,1 C 1,3 km/h (1 Bft)
12.01.2022 17:00 3,4 C 93 % 1040,3 hPa 0,0 mm 1,1 km/h (0 Bft) NW 0,00 h 0,0 mm 0,0 UV-I 0 W/m 2,4 C 2,8 km/h (1 Bft)
12.01.2022 18:00 3,3 C 93 % 1040,8 hPa 0,0 mm 0,9 km/h (0 Bft) NW 0,00 h 0,0 mm 0,0 UV-I 0 W/m 2,2 C 3,0 km/h (1 Bft)
12.01.2022 19:00 3,1 C 91 % 1041,2 hPa 0,0 mm 1,3 km/h (1 Bft) N-NW 0,00 h 0,0 mm 0,0 UV-I 0 W/m 1,8 C 4,1 km/h (1 Bft)
12.01.2022 20:00 3,1 C 91 % 1041,6 hPa 0,0 mm 0,7 km/h (0 Bft) N-NW 0,00 h 0,0 mm 0,0 UV-I 0 W/m 1,8 C 2,2 km/h (1 Bft)
12.01.2022 21:00 3,1 C 91 % 1041,9 hPa 0,0 mm 0,5 km/h (0 Bft) N-NW 0,00 h 0,0 mm 0,0 UV-I 0 W/m 1,7 C 2,6 km/h (1 Bft)
12.01.2022 22:00 3,1 C 90 % 1041,7 hPa 0,0 mm 1,7 km/h (1 Bft) N-NW 0,00 h 0,0 mm 0,0 UV-I 0 W/m 1,6 C 6,3 km/h (2 Bft)
12.01.2022 23:00 2,9 C 90 % 1041,9 hPa 0,0 mm 1,7 km/h (1 Bft) O 0,00 h 0,0 mm 0,0 UV-I 0 W/m 1,5 C 5,4 km/h (1 Bft)
13.01.2022 00:00 2,9 C 90 % 1041,8 hPa 0,0 mm 2,1 km/h (1 Bft) NW 0,00 h 0,0 mm 0,0 UV-I 0 W/m 1,4 C 6,3 km/h (2 Bft)
13.01.2022 01:00 2,7 C 90 % 1041,6 hPa 0,0 mm 2,4 km/h (1 Bft) NW 0,00 h 0,0 mm 0,0 UV-I 0 W/m 1,2 C 7,1 km/h (2 Bft)
13.01.2022 02:00 2,7 C 89 % 1041,8 hPa 0,0 mm 1,4 km/h (1 Bft) W-NW 0,00 h 0,0 mm 0,0 UV-I 0 W/m 1,1 C 4,8 km/h (1 Bft)
13.01.2022 03:00 2,5 C 89 % 1041,9 hPa 0,0 mm 1,3 km/h (1 Bft) W 0,00 h 0,0 mm 0,0 UV-I 0 W/m 0,9 C 5,0 km/h (1 Bft)
13.01.2022 04:00 2,4 C 89 % 1041,6 hPa 0,0 mm 1,4 km/h (1 Bft) W 0,00 h 0,0 mm 0,0 UV-I 0 W/m 0,8 C 4,5 km/h (1 Bft)
13.01.2022 05:00 2,3 C 89 % 1041,6 hPa 0,0 mm 1,7 km/h (1 Bft) W 0,00 h 0,0 mm 0,0 UV-I 0 W/m 0,6 C 4,6 km/h (1 Bft)
13.01.2022 06:00 1,9 C 90 % 1041,3 hPa 0,0 mm 2,9 km/h (1 Bft) W 0,00 h 0,0 mm 0,0 UV-I 0 W/m 0,4 C 6,0 km/h (2 Bft)
13.01.2022 07:00 1,5 C 90 % 1041,2 hPa 0,0 mm 2,9 km/h (1 Bft) W 0,00 h 0,0 mm 0,0 UV-I 0 W/m 0,1 C 7,6 km/h (2 Bft)
13.01.2022 08:00 1,2 C 91 % 1041,4 hPa 0,0 mm 2,0 km/h (1 Bft) SW 0,00 h 0,0 mm 0,0 UV-I 5 W/m -0,1 C 5,8 km/h (2 Bft)
13.01.2022 09:00 1,2 C 92 % 1041,7 hPa 0,0 mm 3,6 km/h (1 Bft) SW 0,00 h 0,0 mm 0,0 UV-I 24 W/m -0,0 C 9,8 km/h (2 Bft)
13.01.2022 10:00 1,3 C 93 % 1041,9 hPa 0,0 mm 4,3 km/h (1 Bft) SW 0,00 h 0,0 mm 0,5 UV-I 60 W/m 0,3 C 11,8 km/h (2 Bft)
13.01.2022 11:00 2,0 C 93 % 1042,0 hPa 0,0 mm 2,9 km/h (1 Bft) SW 0,67 h 0,0 mm 1,0 UV-I 211 W/m 0,9 C 8,9 km/h (2 Bft)
13.01.2022 12:00 3,6 C 88 % 1041,4 hPa 0,0 mm 4,0 km/h (1 Bft) O 1,00 h 0,1 mm 1,4 UV-I 351 W/m 1,8 C 9,8 km/h (2 Bft)
13.01.2022 13:00 5,4 C 81 % 1040,7 hPa 0,0 mm 2,8 km/h (1 Bft) O 1,00 h 0,1 mm 1,6 UV-I 338 W/m 2,4 C 6,3 km/h (2 Bft)
13.01.2022 14:00 7,4 C 73 % 1040,3 hPa 0,0 mm 2,0 km/h (1 Bft) O 1,00 h 0,1 mm 1,7 UV-I 274 W/m 2,9 C 5,4 km/h (1 Bft)
13.01.2022 15:00 7,1 C 74 % 1039,9 hPa 0,0 mm 1,7 km/h (1 Bft) O 1,00 h 0,1 mm 1,2 UV-I 163 W/m 2,8 C 4,2 km/h (1 Bft)
13.01.2022 16:00 6,4 C 76 % 1039,6 hPa 0,0 mm 0,9 km/h (0 Bft) SW 0,42 h 0,1 mm 0,0 UV-I 26 W/m 2,5 C 3,3 km/h (1 Bft)
13.01.2022 17:00 5,1 C 81 % 1039,5 hPa 0,0 mm 0,8 km/h (0 Bft) O 0,00 h 0,0 mm 0,0 UV-I 0 W/m 2,0 C 3,3 km/h (1 Bft)
13.01.2022 18:00 4,1 C 84 % 1039,5 hPa 0,0 mm 1,0 km/h (0 Bft) O 0,00 h 0,0 mm 0,0 UV-I 0 W/m 1,6 C 2,8 km/h (1 Bft)
13.01.2022 19:00 3,8 C 84 % 1039,3 hPa 0,0 mm 1,7 km/h (1 Bft) O 0,00 h 0,0 mm 0,0 UV-I 0 W/m 1,4 C 4,4 km/h (1 Bft)
13.01.2022 20:00 2,7 C 86 % 1039,2 hPa 0,0 mm 0,0 km/h (0 Bft) N 0,00 h 0,0 mm 0,0 UV-I 0 W/m 0,6 C 0,0 km/h (0 Bft)
13.01.2022 21:00 1,5 C 88 % 1039,0 hPa 0,0 mm 0,1 km/h (0 Bft) N 0,00 h 0,0 mm 0,0 UV-I 0 W/m -0,3 C 0,4 km/h (0 Bft)
13.01.2022 22:00 1,1 C 89 % 1039,0 hPa 0,0 mm 0,6 km/h (0 Bft) O 0,00 h 0,0 mm 0,0 UV-I 0 W/m -0,5 C 2,0 km/h (1 Bft)
13.01.2022 23:00 1,5 C 90 % 1038,8 hPa 0,0 mm 1,9 km/h (1 Bft) SW 0,00 h 0,0 mm 0,0 UV-I 0 W/m 0,1 C 6,5 km/h (2 Bft)
14.01.2022 00:00 1,0 C 89 % 1038,5 hPa 0,0 mm 0,4 km/h (0 Bft) SW 0,00 h 0,0 mm 0,0 UV-I 0 W/m -0,5 C 2,2 km/h (1 Bft)
14.01.2022 01:00 0,8 C 90 % 1037,9 hPa 0,0 mm 2,5 km/h (1 Bft) SW 0,00 h 0,0 mm 0,0 UV-I 0 W/m -0,7 C 6,3 km/h (2 Bft)
14.01.2022 02:00 0,4 C 90 % 1037,6 hPa 0,0 mm 1,5 km/h (1 Bft) SW 0,00 h 0,0 mm 0,0 UV-I 0 W/m -1,0 C 4,4 km/h (1 Bft)
14.01.2022 03:00 0,1 C 91 % 1037,5 hPa 0,0 mm 0,4 km/h (0 Bft) SW 0,00 h 0,0 mm 0,0 UV-I 0 W/m -1,2 C 1,3 km/h (1 Bft)
14.01.2022 04:00 -0,3 C 91 % 1037,1 hPa 0,0 mm 0,7 km/h (0 Bft) SW 0,00 h 0,0 mm 0,0 UV-I 0 W/m -1,6 C 2,8 km/h (1 Bft)
14.01.2022 05:00 -0,3 C 91 % 1036,6 hPa 0,0 mm 2,1 km/h (1 Bft) SW 0,00 h 0,0 mm 0,0 UV-I 0 W/m -1,5 C 6,3 km/h (2 Bft)
14.01.2022 06:00 -0,5 C 91 % 1036,3 hPa 0,0 mm 0,2 km/h (0 Bft) N 0,00 h 0,0 mm 0,0 UV-I 0 W/m -1,7 C 1,3 km/h (1 Bft)
14.01.2022 07:00 -0,8 C 91 % 1036,5 hPa 0,0 mm 0,1 km/h (0 Bft) N 0,00 h 0,0 mm 0,0 UV-I 0 W/m -2,1 C 1,7 km/h (1 Bft)
14.01.2022 08:00 -0,9 C 91 % 1036,3 hPa 0,0 mm 0,1 km/h (0 Bft) N 0,08 h 0,0 mm 0,0 UV-I 11 W/m -2,1 C 1,3 km/h (1 Bft)
14.01.2022 09:00 -0,6 C 93 % 1036,5 hPa 0,0 mm 0,7 km/h (0 Bft) SW 0,75 h 0,0 mm 0,5 UV-I 74 W/m -1,6 C 3,5 km/h (1 Bft)
14.01.2022 10:00 0,3 C 93 % 1036,2 hPa 0,0 mm 2,4 km/h (1 Bft) O 1,00 h 0,0 mm 0,7 UV-I 192 W/m -0,7 C 6,5 km/h (2 Bft)
14.01.2022 11:00 1,8 C 91 % 1036,6 hPa 0,0 mm 0,7 km/h (0 Bft) O 0,83 h 0,1 mm 1,0 UV-I 251 W/m 0,5 C 2,2 km/h (1 Bft)
14.01.2022 12:00 2,2 C 91 % 1036,3 hPa 0,0 mm 0,1 km/h (0 Bft) N 0,00 h 0,1 mm 0,5 UV-I 66 W/m 0,8 C 0,7 km/h (0 Bft)
14.01.2022 13:00 2,4 C 92 % 1036,0 hPa 0,0 mm 0,1 km/h (0 Bft) N 0,00 h 0,0 mm 0,5 UV-I 65 W/m 1,2 C 0,7 km/h (0 Bft)
14.01.2022 14:00 2,8 C 93 % 1035,7 hPa 0,0 mm 0,0 km/h (0 Bft) O 0,00 h 0,0 mm 0,0 UV-I 46 W/m 1,8 C 0,6 km/h (0 Bft)
14.01.2022 15:00 2,7 C 93 % 1035,4 hPa 0,0 mm 2,1 km/h (1 Bft) O 0,00 h 0,0 mm 0,0 UV-I 28 W/m 1,7 C 4,6 km/h (1 Bft)
14.01.2022 16:00 2,9 C 93 % 1035,4 hPa 0,0 mm 0,3 km/h (0 Bft) N 0,00 h 0,0 mm 0,0 UV-I 13 W/m 1,9 C 1,7 km/h (1 Bft)
14.01.2022 17:00 3,1 C 93 % 1035,2 hPa 0,0 mm 0,1 km/h (0 Bft) N 0,00 h 0,0 mm 0,0 UV-I 0 W/m 2,1 C 0,4 km/h (0 Bft)
14.01.2022 18:00 2,9 C 93 % 1035,2 hPa 0,0 mm 0,0 km/h (0 Bft) N 0,00 h 0,0 mm 0,0 UV-I 0 W/m 1,9 C 0,0 km/h (0 Bft)
14.01.2022 19:00 2,9 C 93 % 1034,8 hPa 0,0 mm 0,0 km/h (0 Bft) N 0,00 h 0,0 mm 0,0 UV-I 0 W/m 1,9 C 0,0 km/h (0 Bft)
14.01.2022 20:00 3,1 C 93 % 1034,6 hPa 0,0 mm 0,0 km/h (0 Bft) N 0,00 h 0,0 mm 0,0 UV-I 0 W/m 2,0 C 0,4 km/h (0 Bft)
14.01.2022 21:00 3,0 C 93 % 1034,1 hPa 0,0 mm 0,8 km/h (0 Bft) SW 0,00 h 0,0 mm 0,0 UV-I 0 W/m 2,0 C 4,0 km/h (1 Bft)
14.01.2022 22:00 3,0 C 93 % 1033,8 hPa 0,0 mm 1,0 km/h (0 Bft) SW 0,00 h 0,0 mm 0,0 UV-I 0 W/m 2,0 C 4,1 km/h (1 Bft)
14.01.2022 23:00 3,0 C 93 % 1033,6 hPa 0,0 mm 0,2 km/h (0 Bft) SW 0,00 h 0,0 mm 0,0 UV-I 0 W/m 1,9 C 1,5 km/h (1 Bft)
15.01.2022 00:00 2,9 C 91 % 1033,3 hPa 0,0 mm 0,2 km/h (0 Bft) SW 0,00 h 0,0 mm 0,0 UV-I 0 W/m 1,6 C 2,0 km/h (1 Bft)
15.01.2022 01:00 2,7 C 92 % 1033,0 hPa 0,0 mm 0,9 km/h (0 Bft) SW 0,00 h 0,0 mm 0,0 UV-I 0 W/m 1,4 C 3,7 km/h (1 Bft)
15.01.2022 02:00 2,4 C 92 % 1032,5 hPa 0,0 mm 1,3 km/h (1 Bft) SW 0,00 h 0,0 mm 0,0 UV-I 0 W/m 1,2 C 5,3 km/h (1 Bft)
15.01.2022 03:00 2,1 C 93 % 1031,9 hPa 0,0 mm 1,9 km/h (1 Bft) SW 0,00 h 0,0 mm 0,0 UV-I 0 W/m 1,1 C 7,8 km/h (2 Bft)
15.01.2022 04:00 1,9 C 93 % 1031,6 hPa 0,0 mm 2,8 km/h (1 Bft) S-SW 0,00 h 0,0 mm 0,0 UV-I 0 W/m 0,9 C 9,4 km/h (2 Bft)
15.01.2022 05:00 1,7 C 93 % 1030,9 hPa 0,0 mm 4,6 km/h (1 Bft) S-SW 0,00 h 0,0 mm 0,0 UV-I 0 W/m 0,7 C 13,3 km/h (3 Bft)
15.01.2022 06:00 1,6 C 93 % 1030,6 hPa 0,0 mm 6,0 km/h (2 Bft) S 0,00 h 0,0 mm 0,0 UV-I 0 W/m 0,6 C 15,9 km/h (3 Bft)
15.01.2022 07:00 1,3 C 93 % 1030,3 hPa 0,0 mm 6,2 km/h (2 Bft) S 0,00 h 0,0 mm 0,0 UV-I 0 W/m 0,3 C 18,0 km/h (3 Bft)
15.01.2022 08:00 1,4 C 93 % 1030,1 hPa 0,0 mm 6,7 km/h (2 Bft) S 0,00 h 0,0 mm 0,0 UV-I 6 W/m 0,4 C 16,5 km/h (3 Bft)
15.01.2022 09:00 1,7 C 93 % 1030,0 hPa 0,0 mm 6,5 km/h (2 Bft) S 0,00 h 0,0 mm 0,0 UV-I 20 W/m 0,7 C 16,1 km/h (3 Bft)
15.01.2022 10:00 2,1 C 93 % 1029,8 hPa 0,0 mm 5,9 km/h (2 Bft) O 0,00 h 0,0 mm 0,0 UV-I 49 W/m 1,1 C 16,8 km/h (3 Bft)
15.01.2022 11:00 2,5 C 92 % 1029,3 hPa 0,0 mm 8,3 km/h (2 Bft) O 0,00 h 0,0 mm 0,9 UV-I 75 W/m 1,2 C 21,3 km/h (4 Bft)
15.01.2022 12:00 2,6 C 91 % 1028,9 hPa 0,0 mm 7,5 km/h (2 Bft) O 0,00 h 0,0 mm 1,0 UV-I 90 W/m 1,3 C 17,2 km/h (3 Bft)
15.01.2022 13:00 3,0 C 91 % 1028,2 hPa 0,0 mm 6,9 km/h (2 Bft) O 0,00 h 0,0 mm 1,1 UV-I 97 W/m 1,6 C 17,0 km/h (3 Bft)
15.01.2022 14:00 3,1 C 90 % 1027,3 hPa 0,0 mm 7,3 km/h (2 Bft) O 0,00 h 0,0 mm 0,8 UV-I 72 W/m 1,6 C 18,0 km/h (3 Bft)
15.01.2022 15:00 3,2 C 90 % 1026,8 hPa 0,0 mm 6,1 km/h (2 Bft) O 0,00 h 0,0 mm 0,0 UV-I 46 W/m 1,7 C 14,6 km/h (3 Bft)
15.01.2022 16:00 3,1 C 90 % 1026,5 hPa 0,0 mm 6,5 km/h (2 Bft) O 0,00 h 0,0 mm 0,0 UV-I 10 W/m 1,6 C 15,9 km/h (3 Bft)
15.01.2022 17:00 2,8 C 90 % 1026,3 hPa 0,0 mm 7,1 km/h (2 Bft) S 0,00 h 0,0 mm 0,0 UV-I 0 W/m 1,4 C 18,3 km/h (3 Bft)
15.01.2022 18:00 2,7 C 91 % 1026,1 hPa 0,0 mm 6,6 km/h (2 Bft) S 0,00 h 0,0 mm 0,0 UV-I 0 W/m 1,4 C 19,2 km/h (3 Bft)
15.01.2022 19:00 2,6 C 91 % 1025,8 hPa 0,0 mm 6,9 km/h (2 Bft) S 0,00 h 0,0 mm 0,0 UV-I 0 W/m 1,3 C 18,5 km/h (3 Bft)
15.01.2022 20:00 2,5 C 91 % 1025,3 hPa 0,0 mm 7,3 km/h (2 Bft) S 0,00 h 0,0 mm 0,0 UV-I 0 W/m 1,2 C 18,9 km/h (3 Bft)
15.01.2022 21:00 2,4 C 91 % 1024,7 hPa 0,0 mm 4,9 km/h (1 Bft) S 0,00 h 0,0 mm 0,0 UV-I 0 W/m 1,1 C 18,9 km/h (3 Bft)
15.01.2022 22:00 2,4 C 91 % 1024,6 hPa 0,0 mm 1,6 km/h (1 Bft) S 0,00 h 0,0 mm 0,0 UV-I 0 W/m 1,1 C 11,8 km/h (2 Bft)
15.01.2022 23:00 2,5 C 91 % 1024,4 hPa 0,0 mm 3,6 km/h (1 Bft) S 0,00 h 0,0 mm 0,0 UV-I 0 W/m 1,2 C 15,4 km/h (3 Bft)
16.01.2022 00:00 2,5 C 91 % 1023,8 hPa 0,0 mm 2,5 km/h (1 Bft) S 0,00 h 0,0 mm 0,0 UV-I 0 W/m 1,2 C 13,3 km/h (3 Bft)
16.01.2022 01:00 2,5 C 91 % 1023,7 hPa 0,0 mm 1,1 km/h (0 Bft) SW 0,00 h 0,0 mm 0,0 UV-I 0 W/m 1,2 C 8,7 km/h (2 Bft)
16.01.2022 02:00 2,4 C 91 % 1024,0 hPa 0,0 mm 0,5 km/h (0 Bft) O 0,00 h 0,0 mm 0,0 UV-I 0 W/m 1,1 C 2,8 km/h (1 Bft)
16.01.2022 03:00 2,4 C 91 % 1024,2 hPa 0,0 mm 0,0 km/h (0 Bft) N 0,00 h 0,0 mm 0,0 UV-I 0 W/m 1,1 C 0,0 km/h (0 Bft)
16.01.2022 04:00 2,4 C 91 % 1023,5 hPa 0,0 mm 0,0 km/h (0 Bft) N 0,00 h 0,0 mm 0,0 UV-I 0 W/m 1,1 C 0,2 km/h (0 Bft)
16.01.2022 05:00 2,5 C 90 % 1023,5 hPa 0,0 mm 0,0 km/h (0 Bft) N 0,00 h 0,0 mm 0,0 UV-I 0 W/m 1,0 C 0,0 km/h (0 Bft)
16.01.2022 06:00 2,5 C 90 % 1023,5 hPa 0,0 mm 0,0 km/h (0 Bft) N 0,00 h 0,0 mm 0,0 UV-I 0 W/m 1,0 C 0,9 km/h (0 Bft)
16.01.2022 07:00 2,6 C 90 % 1023,6 hPa 0,0 mm 0,0 km/h (0 Bft) N 0,00 h 0,0 mm 0,0 UV-I 0 W/m 1,1 C 0,6 km/h (0 Bft)
16.01.2022 08:00 3,1 C 89 % 1024,0 hPa 0,0 mm 1,0 km/h (0 Bft) W 0,00 h 0,0 mm 0,0 UV-I 5 W/m 1,5 C 6,1 km/h (2 Bft)
16.01.2022 09:00 3,6 C 88 % 1024,4 hPa 0,0 mm 8,8 km/h (2 Bft) N-NW 0,00 h 0,0 mm 0,0 UV-I 16 W/m 1,8 C 18,5 km/h (3 Bft)
16.01.2022 10:00 4,0 C 88 % 1025,0 hPa 0,0 mm 8,5 km/h (2 Bft) O 0,00 h 0,0 mm 0,0 UV-I 41 W/m 2,1 C 19,4 km/h (3 Bft)
16.01.2022 11:00 4,7 C 86 % 1025,5 hPa 0,0 mm 9,5 km/h (2 Bft) O 0,00 h 0,0 mm 0,8 UV-I 71 W/m 2,6 C 20,0 km/h (4 Bft)
16.01.2022 12:00 5,1 C 86 % 1025,7 hPa 0,0 mm 11,6 km/h (2 Bft) O 0,00 h 0,0 mm 0,9 UV-I 81 W/m 3,0 C 23,9 km/h (4 Bft)
16.01.2022 13:00 5,5 C 85 % 1025,6 hPa 0,0 mm 14,7 km/h (3 Bft) O 0,58 h 0,1 mm 1,4 UV-I 206 W/m 3,2 C 31,1 km/h (5 Bft)
16.01.2022 14:00 5,5 C 85 % 1025,6 hPa 0,0 mm 13,6 km/h (3 Bft) O 0,08 h 0,1 mm 1,3 UV-I 108 W/m 3,2 C 27,4 km/h (4 Bft)
16.01.2022 15:00 5,2 C 87 % 1025,9 hPa 0,0 mm 14,6 km/h (3 Bft) N-NW 0,00 h 0,1 mm 0,5 UV-I 31 W/m 3,2 C 31,1 km/h (5 Bft)
16.01.2022 16:00 4,9 C 87 % 1026,4 hPa 0,0 mm 10,9 km/h (2 Bft) O 0,00 h 0,0 mm 0,0 UV-I 10 W/m 2,9 C 22,0 km/h (4 Bft)
16.01.2022 17:00 4,8 C 88 % 1027,0 hPa 0,0 mm 9,5 km/h (2 Bft) O 0,00 h 0,0 mm 0,0 UV-I 0 W/m 3,0 C 20,7 km/h (4 Bft)
16.01.2022 18:00 4,7 C 89 % 1027,4 hPa 0,0 mm 10,0 km/h (2 Bft) O 0,00 h 0,0 mm 0,0 UV-I 0 W/m 3,0 C 22,7 km/h (4 Bft)
16.01.2022 19:00 4,7 C 90 % 1028,0 hPa 0,0 mm 12,3 km/h (3 Bft) O 0,00 h 0,0 mm 0,0 UV-I 0 W/m 3,2 C 26,5 km/h (4 Bft)
16.01.2022 20:00 4,7 C 90 % 1028,8 hPa 0,0 mm 13,1 km/h (3 Bft) O 0,00 h 0,0 mm 0,0 UV-I 0 W/m 3,2 C 25,7 km/h (4 Bft)
16.01.2022 21:00 4,7 C 90 % 1029,1 hPa 0,0 mm 13,6 km/h (3 Bft) O 0,00 h 0,0 mm 0,0 UV-I 0 W/m 3,2 C 28,1 km/h (4 Bft)
16.01.2022 22:00 4,6 C 90 % 1029,6 hPa 0,0 mm 13,2 km/h (3 Bft) O 0,00 h 0,0 mm 0,0 UV-I 0 W/m 3,1 C 27,6 km/h (4 Bft)
16.01.2022 23:00 4,6 C 91 % 1030,1 hPa 0,0 mm 13,2 km/h (3 Bft) O 0,00 h 0,0 mm 0,0 UV-I 0 W/m 3,1 C 26,9 km/h (4 Bft)
Min-Datum _ 14.01.22 13.01.22 10.01.22 - 10.01.22 - - - - - 14.01.22 10.01.22
_ Min-Zeit 07:20 14:35 00:00 - 00:40 - - - - - 07:20 00:40
Minimum _ -0,9 C 71 % 1009,9 hPa - 0,0 km/h (0 Bft) - - - - - -2,2 C 0,0 km/h (0 Bft)
Max-Datum _ 13.01.22 10.01.22 12.01.22 10.01.22 16.01.22 - 10.01.22 10.01.22 13.01.22 10.01.22 10.01.22 16.01.22
_ Max-Zeit 14:50 10:05 21:10 00:00 20:00 - 09:20 13:00 14:10 12:15 14:30 13:40
Maximum _ 7,9 C 93 % 1042,1 hPa 0,0 mm 17,4 km/h
O (3 Bft)
- 0,08 h 0,1 mm 1,8 UV-I 368 W/m 3,8 C 40,0 km/h
O (6 Bft)
Durchschnitt _ 2,4 C 90 % 1032,1 hPa #0,0 mm 3,1 km/h (1 Bft) O #18:45 h #2,058 mm 0,9 UV-I 97 W/m 0,8 C 8,4 km/h (2 Bft)



© 1998 - 2022 www.pulheimwetter.de